createdAt,value
2018-06-22T00:00:25.601Z,21.27
2018-06-22T00:01:25.419Z,21.27
2018-06-22T00:02:25.370Z,21.27
2018-06-22T00:03:25.586Z,21.27
2018-06-22T00:04:25.517Z,21.27
2018-06-22T00:05:25.793Z,21.27
2018-06-22T00:06:25.534Z,21.27
2018-06-22T00:07:25.603Z,21.27
2018-06-22T00:08:25.516Z,21.27
2018-06-22T00:09:25.758Z,21.27
2018-06-22T00:10:25.547Z,21.27
2018-06-22T00:11:25.388Z,21.27
2018-06-22T00:12:25.695Z,21.26
2018-06-22T00:13:25.579Z,21.27
2018-06-22T00:14:25.510Z,21.27
2018-06-22T00:15:25.558Z,21.26
2018-06-22T00:16:25.633Z,21.26
2018-06-22T00:17:25.515Z,21.26
2018-06-22T00:18:25.573Z,21.26
2018-06-22T00:19:25.472Z,21.26
2018-06-22T00:20:25.438Z,21.26
2018-06-22T00:21:25.712Z,21.26
2018-06-22T00:22:25.364Z,21.26
2018-06-22T00:23:25.541Z,21.25
2018-06-22T00:24:25.518Z,21.25
2018-06-22T00:25:25.434Z,21.25
2018-06-22T00:26:25.385Z,21.26
2018-06-22T00:27:25.578Z,21.26
2018-06-22T00:28:25.630Z,21.25
2018-06-22T00:29:25.337Z,21.25
2018-06-22T00:30:25.654Z,21.25
2018-06-22T00:31:25.418Z,21.25
2018-06-22T00:32:25.400Z,21.25
2018-06-22T00:33:25.821Z,21.25
2018-06-22T00:34:25.438Z,21.25
2018-06-22T00:35:25.436Z,21.25
2018-06-22T00:36:25.516Z,21.25
2018-06-22T00:37:25.407Z,21.25
2018-06-22T00:38:25.403Z,21.25
2018-06-22T00:39:25.555Z,21.25
2018-06-22T00:40:25.562Z,21.24
2018-06-22T00:41:25.359Z,21.25
2018-06-22T00:42:25.446Z,21.24
2018-06-22T00:43:25.433Z,21.24
2018-06-22T00:44:25.739Z,21.24
2018-06-22T00:45:25.430Z,21.24
2018-06-22T00:46:25.599Z,21.24
2018-06-22T00:47:25.468Z,21.24
2018-06-22T00:48:25.329Z,21.24
2018-06-22T00:49:25.342Z,21.24
2018-06-22T00:50:25.584Z,21.24
2018-06-22T00:51:25.826Z,21.24
2018-06-22T00:52:25.574Z,21.24
2018-06-22T00:53:25.379Z,21.24
2018-06-22T00:54:25.602Z,21.24
2018-06-22T00:55:25.558Z,21.24
2018-06-22T00:56:25.369Z,21.24
2018-06-22T00:57:25.512Z,21.24
2018-06-22T00:58:25.329Z,21.24
2018-06-22T00:59:25.461Z,21.24
2018-06-22T01:00:25.425Z,21.24
2018-06-22T01:01:25.625Z,21.24
2018-06-22T01:02:25.504Z,21.24
2018-06-22T01:03:25.551Z,21.24
2018-06-22T01:04:25.449Z,21.24
2018-06-22T01:05:25.521Z,21.24
2018-06-22T01:06:25.687Z,21.24
2018-06-22T01:07:25.356Z,21.24
2018-06-22T01:08:25.548Z,21.24
2018-06-22T01:09:25.602Z,21.23
2018-06-22T01:10:25.502Z,21.23
2018-06-22T01:11:25.380Z,21.23
2018-06-22T01:12:25.627Z,21.23
2018-06-22T01:13:25.464Z,21.23
2018-06-22T01:14:25.325Z,21.23
2018-06-22T01:15:25.496Z,21.23
2018-06-22T01:16:25.649Z,21.23
2018-06-22T01:17:25.564Z,21.23
2018-06-22T01:18:25.749Z,21.23
2018-06-22T01:19:25.725Z,21.23
2018-06-22T01:20:25.536Z,21.23
2018-06-22T01:21:25.617Z,21.23
2018-06-22T01:22:25.545Z,21.22
2018-06-22T01:23:25.487Z,21.22
2018-06-22T01:24:25.736Z,21.22
2018-06-22T01:25:25.412Z,21.22
2018-06-22T01:26:25.599Z,21.22
2018-06-22T01:27:25.530Z,21.22
2018-06-22T01:28:25.410Z,21.22
2018-06-22T01:29:25.563Z,21.22
2018-06-22T01:30:25.626Z,21.22
2018-06-22T01:31:25.519Z,21.22
2018-06-22T01:32:25.414Z,21.22
2018-06-22T01:33:25.628Z,21.22
2018-06-22T01:34:25.441Z,21.22
2018-06-22T01:35:25.449Z,21.22
2018-06-22T01:36:25.459Z,21.21
2018-06-22T01:37:25.623Z,21.22
2018-06-22T01:38:25.352Z,21.21
2018-06-22T01:39:25.614Z,21.21
2018-06-22T01:40:25.521Z,21.21
2018-06-22T01:41:25.637Z,21.22
2018-06-22T01:42:25.548Z,21.21
2018-06-22T01:43:25.565Z,21.21
2018-06-22T01:44:25.601Z,21.21
2018-06-22T01:45:25.569Z,21.21
2018-06-22T01:46:25.488Z,21.21
2018-06-22T01:47:25.403Z,21.21
2018-06-22T01:48:25.686Z,21.21
2018-06-22T01:49:25.554Z,21.21
2018-06-22T01:50:25.545Z,21.21
2018-06-22T01:51:25.534Z,21.21
2018-06-22T01:52:25.518Z,21.21
2018-06-22T01:53:25.509Z,21.21
2018-06-22T01:54:25.595Z,21.2
2018-06-22T01:55:25.403Z,21.2
2018-06-22T01:56:25.396Z,21.2
2018-06-22T01:57:25.464Z,21.2
2018-06-22T01:58:25.468Z,21.2
2018-06-22T01:59:25.565Z,21.2
2018-06-22T02:00:25.568Z,21.2
2018-06-22T02:01:25.568Z,21.2
2018-06-22T02:02:25.567Z,21.2
2018-06-22T02:03:25.730Z,21.2
2018-06-22T02:04:25.322Z,21.2
2018-06-22T02:05:25.364Z,21.2
2018-06-22T02:06:25.484Z,21.2
2018-06-22T02:07:25.365Z,21.2
2018-06-22T02:08:25.399Z,21.19
2018-06-22T02:09:25.380Z,21.19
2018-06-22T02:10:25.547Z,21.19
2018-06-22T02:11:25.471Z,21.19
2018-06-22T02:12:25.385Z,21.19
2018-06-22T02:13:25.525Z,21.19
2018-06-22T02:14:25.313Z,21.19
2018-06-22T02:15:25.507Z,21.19
2018-06-22T02:16:25.519Z,21.19
2018-06-22T02:17:25.729Z,21.19
2018-06-22T02:18:25.573Z,21.19
2018-06-22T02:19:25.433Z,21.19
2018-06-22T02:20:25.431Z,21.19
2018-06-22T02:21:25.384Z,21.19
2018-06-22T02:22:25.441Z,21.19
2018-06-22T02:23:25.367Z,21.18
2018-06-22T02:24:25.576Z,21.18
2018-06-22T02:25:25.502Z,21.19
2018-06-22T02:26:25.336Z,21.18
2018-06-22T02:27:25.404Z,21.18
2018-06-22T02:28:25.410Z,21.18
2018-06-22T02:29:25.424Z,21.18
2018-06-22T02:30:25.667Z,21.18
2018-06-22T02:31:25.630Z,21.18
2018-06-22T02:32:25.482Z,21.18
2018-06-22T02:33:25.465Z,21.18
2018-06-22T02:34:25.562Z,21.18
2018-06-22T02:35:25.604Z,21.18
2018-06-22T02:36:25.775Z,21.18
2018-06-22T02:37:25.390Z,21.18
2018-06-22T02:38:25.396Z,21.18
2018-06-22T02:39:25.537Z,21.18
2018-06-22T02:40:25.401Z,21.18
2018-06-22T02:41:25.352Z,21.18
2018-06-22T02:42:25.779Z,21.18
2018-06-22T02:43:25.304Z,21.18
2018-06-22T02:44:25.343Z,21.18
2018-06-22T02:45:25.651Z,21.18
2018-06-22T02:46:25.414Z,21.18
2018-06-22T02:47:25.699Z,21.18
2018-06-22T02:48:25.459Z,21.18
2018-06-22T02:49:25.459Z,21.18
2018-06-22T02:50:25.415Z,21.18
2018-06-22T02:51:25.500Z,21.18
2018-06-22T02:52:25.338Z,21.18
2018-06-22T02:53:25.420Z,21.18
2018-06-22T02:54:25.520Z,21.18
2018-06-22T02:55:25.621Z,21.18
2018-06-22T02:56:25.327Z,21.18
2018-06-22T02:57:25.480Z,21.18
2018-06-22T02:58:25.511Z,21.17
2018-06-22T02:59:25.273Z,21.18
2018-06-22T03:00:25.453Z,21.17
2018-06-22T03:01:25.363Z,21.17
2018-06-22T03:02:25.622Z,21.17
2018-06-22T03:03:25.514Z,21.17
2018-06-22T03:04:25.588Z,21.17
2018-06-22T03:05:25.371Z,21.17
2018-06-22T03:06:25.390Z,21.17
2018-06-22T03:07:25.702Z,21.17
2018-06-22T03:08:25.546Z,21.17
2018-06-22T03:09:25.520Z,21.17
2018-06-22T03:10:25.360Z,21.17
2018-06-22T03:11:25.442Z,21.17
2018-06-22T03:12:25.588Z,21.17
2018-06-22T03:13:25.677Z,21.16
2018-06-22T03:14:25.501Z,21.16
2018-06-22T03:15:25.453Z,21.17
2018-06-22T03:16:25.404Z,21.16
2018-06-22T03:17:25.412Z,21.16
2018-06-22T03:18:25.393Z,21.17
2018-06-22T03:19:55.844Z,21.17
2018-06-22T03:20:55.888Z,21.16
2018-06-22T03:21:55.775Z,21.16
2018-06-22T03:22:55.855Z,21.16
2018-06-22T03:23:55.685Z,21.16
2018-06-22T03:24:55.997Z,21.17
2018-06-22T03:25:55.888Z,21.17
2018-06-22T03:26:55.919Z,21.16
2018-06-22T03:27:55.978Z,21.16
2018-06-22T03:28:55.754Z,21.16
2018-06-22T03:29:55.843Z,21.15
2018-06-22T03:30:56.130Z,21.16
2018-06-22T03:31:56.424Z,21.16
2018-06-22T03:32:55.966Z,21.15
2018-06-22T03:33:55.710Z,21.15
2018-06-22T03:34:55.845Z,21.16
2018-06-22T03:35:55.836Z,21.16
2018-06-22T03:36:55.850Z,21.15
2018-06-22T03:37:55.958Z,21.16
2018-06-22T03:38:56.063Z,21.15
2018-06-22T03:39:55.819Z,21.15
2018-06-22T03:40:55.942Z,21.16
2018-06-22T03:41:55.899Z,21.15
2018-06-22T03:42:55.729Z,21.15
2018-06-22T03:43:55.767Z,21.15
2018-06-22T03:44:55.918Z,21.15
2018-06-22T03:45:55.970Z,21.15
2018-06-22T03:46:55.954Z,21.15
2018-06-22T03:47:56.089Z,21.15
2018-06-22T03:48:55.768Z,21.15
2018-06-22T03:49:55.821Z,21.15
2018-06-22T03:50:55.901Z,21.15
2018-06-22T03:51:55.868Z,21.15
2018-06-22T03:52:56.071Z,21.15
2018-06-22T03:53:55.979Z,21.14
2018-06-22T03:54:56.014Z,21.15
2018-06-22T03:55:55.756Z,21.15
2018-06-22T03:56:55.995Z,21.15
2018-06-22T03:57:55.821Z,21.14
2018-06-22T03:58:55.837Z,21.14
2018-06-22T03:59:55.921Z,21.15
2018-06-22T04:00:56.008Z,21.14
2018-06-22T04:01:55.979Z,21.14
2018-06-22T04:02:55.965Z,21.14
2018-06-22T04:03:55.860Z,21.14
2018-06-22T04:04:55.727Z,21.14
2018-06-22T04:05:55.892Z,21.14
2018-06-22T04:06:55.734Z,21.14
2018-06-22T04:07:55.845Z,21.14
2018-06-22T04:08:56.093Z,21.14
2018-06-22T04:09:55.971Z,20.91
2018-06-22T04:10:56.013Z,20.6
2018-06-22T04:11:55.991Z,20.52
2018-06-22T04:12:55.834Z,20.4
2018-06-22T04:13:55.891Z,20.34
2018-06-22T04:14:55.821Z,20.34
2018-06-22T04:15:55.998Z,20.29
2018-06-22T04:16:55.924Z,20.3
2018-06-22T04:17:55.682Z,20.16
2018-06-22T04:18:55.799Z,20.1
2018-06-22T04:19:55.918Z,20.07
2018-06-22T04:20:55.901Z,20.06
2018-06-22T04:21:55.966Z,20
2018-06-22T04:22:55.875Z,20
2018-06-22T04:23:55.957Z,19.98
2018-06-22T04:24:56.356Z,19.94
2018-06-22T04:25:55.988Z,19.91
2018-06-22T04:26:55.788Z,19.9
2018-06-22T04:27:55.988Z,19.9
2018-06-22T04:28:55.999Z,19.86
2018-06-22T04:29:56.068Z,19.87
2018-06-22T04:30:55.737Z,19.88
2018-06-22T04:31:55.893Z,19.82
2018-06-22T04:32:55.823Z,19.81
2018-06-22T04:33:55.892Z,19.77
2018-06-22T04:34:55.816Z,19.8
2018-06-22T04:35:55.731Z,19.77
2018-06-22T04:36:55.945Z,19.78
2018-06-22T04:37:55.997Z,19.82
2018-06-22T04:38:55.719Z,19.79
2018-06-22T04:39:55.847Z,19.75
2018-06-22T04:40:55.796Z,19.72
2018-06-22T04:41:55.873Z,19.7
2018-06-22T04:42:56.095Z,19.73
2018-06-22T04:43:55.917Z,19.73
2018-06-22T04:44:55.721Z,19.7
2018-06-22T04:45:55.840Z,19.74
2018-06-22T04:46:55.834Z,19.71
2018-06-22T04:47:56.013Z,19.68
2018-06-22T04:48:55.942Z,19.69
2018-06-22T04:49:55.711Z,19.64
2018-06-22T04:50:56.025Z,19.62
2018-06-22T04:51:55.972Z,19.63
2018-06-22T04:52:55.910Z,19.62
2018-06-22T04:53:55.809Z,19.59
2018-06-22T04:54:55.847Z,19.59
2018-06-22T04:55:55.918Z,19.58
2018-06-22T04:56:55.797Z,19.56
2018-06-22T04:57:55.828Z,19.57
2018-06-22T04:58:56.011Z,19.57
2018-06-22T04:59:55.757Z,19.56
2018-06-22T05:00:55.834Z,19.63
2018-06-22T05:01:55.944Z,19.55
2018-06-22T05:02:55.865Z,19.57
2018-06-22T05:03:55.783Z,19.6
2018-06-22T05:04:55.831Z,19.63
2018-06-22T05:05:55.795Z,19.63
2018-06-22T05:06:55.948Z,19.61
2018-06-22T05:07:55.757Z,19.56
2018-06-22T05:08:55.844Z,19.54
2018-06-22T05:09:55.757Z,19.56
2018-06-22T05:10:55.991Z,19.54
2018-06-22T05:11:55.739Z,19.5
2018-06-22T05:12:55.877Z,19.5
2018-06-22T05:13:55.802Z,19.51
2018-06-22T05:14:55.858Z,19.51
2018-06-22T05:15:55.872Z,19.54
2018-06-22T05:16:55.899Z,19.58
2018-06-22T05:17:55.899Z,19.56
2018-06-22T05:18:55.857Z,19.54
2018-06-22T05:19:56.071Z,19.5
2018-06-22T05:20:55.948Z,19.44
2018-06-22T05:21:56.029Z,19.49
2018-06-22T05:22:55.743Z,19.49
2018-06-22T05:23:55.912Z,19.4
2018-06-22T05:24:56.671Z,19.45
2018-06-22T05:25:55.793Z,19.42
2018-06-22T05:26:55.947Z,19.39
2018-06-22T05:27:55.907Z,19.45
2018-06-22T05:28:55.786Z,19.46
2018-06-22T05:29:55.845Z,19.49
2018-06-22T05:30:55.827Z,19.45
2018-06-22T05:31:55.852Z,19.43
2018-06-22T05:32:55.803Z,19.45
2018-06-22T05:33:55.740Z,19.41
2018-06-22T05:34:55.935Z,19.43
2018-06-22T05:35:56.739Z,19.45
2018-06-22T05:36:55.784Z,19.45
2018-06-22T05:37:55.865Z,19.45
2018-06-22T05:38:55.723Z,19.4
2018-06-22T05:39:55.938Z,19.45
2018-06-22T05:40:55.736Z,19.37
2018-06-22T05:41:55.731Z,19.33
2018-06-22T05:42:55.830Z,19.33
2018-06-22T05:43:55.812Z,19.17
2018-06-22T05:44:55.793Z,18.93
2018-06-22T05:45:55.748Z,19.06
2018-06-22T05:46:55.829Z,19.11
2018-06-22T05:47:55.742Z,19.14
2018-06-22T05:48:55.982Z,19.08
2018-06-22T05:49:55.749Z,19.02
2018-06-22T05:50:56.251Z,19.02
2018-06-22T05:51:55.728Z,18.89
2018-06-22T05:52:55.823Z,18.86
2018-06-22T05:53:55.872Z,18.87
2018-06-22T05:54:55.970Z,18.93
2018-06-22T05:55:55.783Z,18.97
2018-06-22T05:56:55.719Z,19.02
2018-06-22T05:57:55.955Z,19.04
2018-06-22T05:58:55.727Z,19.09
2018-06-22T05:59:55.950Z,19.14
2018-06-22T06:00:55.753Z,19.17
2018-06-22T06:01:55.862Z,19.17
2018-06-22T06:02:55.753Z,19.24
2018-06-22T06:03:55.786Z,19.27
2018-06-22T06:04:55.810Z,19.32
2018-06-22T06:05:55.924Z,19.35
2018-06-22T06:06:55.820Z,19.34
2018-06-22T06:07:56.005Z,19.37
2018-06-22T06:08:55.871Z,19.38
2018-06-22T06:09:55.679Z,19.39
2018-06-22T06:10:55.898Z,19.41
2018-06-22T06:11:55.898Z,19.41
2018-06-22T06:12:55.982Z,19.45
2018-06-22T06:13:55.707Z,19.5
2018-06-22T06:14:56.175Z,19.5
2018-06-22T06:15:55.837Z,19.52
2018-06-22T06:16:55.930Z,19.51
2018-06-22T06:17:55.763Z,19.57
2018-06-22T06:18:55.755Z,19.57
2018-06-22T06:19:56.118Z,19.57
2018-06-22T06:20:56.138Z,19.57
2018-06-22T06:21:55.939Z,19.6
2018-06-22T06:22:55.844Z,19.57
2018-06-22T06:23:55.862Z,19.56
2018-06-22T06:24:56.252Z,19.56
2018-06-22T06:25:55.771Z,19.57
2018-06-22T06:26:55.768Z,19.57
2018-06-22T06:28:05.883Z,19.6
2018-06-22T06:28:55.848Z,19.58
2018-06-22T06:29:55.760Z,19.59
2018-06-22T06:30:55.699Z,19.6
2018-06-22T06:31:55.885Z,19.62
2018-06-22T06:32:55.733Z,19.6
2018-06-22T06:33:55.884Z,19.61
2018-06-22T06:34:55.794Z,19.62
2018-06-22T06:35:55.886Z,19.6
2018-06-22T06:36:55.835Z,19.62
2018-06-22T06:37:55.875Z,19.66
2018-06-22T06:38:55.757Z,19.69
2018-06-22T06:39:55.779Z,19.7
2018-06-22T06:40:55.772Z,19.75
2018-06-22T06:41:56.223Z,19.77
2018-06-22T06:42:55.862Z,19.8
2018-06-22T06:43:55.830Z,19.82
2018-06-22T06:44:55.888Z,19.85
2018-06-22T06:45:55.787Z,19.87
2018-06-22T06:46:55.807Z,19.88
2018-06-22T06:47:55.813Z,19.89
2018-06-22T06:48:55.719Z,19.91
2018-06-22T06:49:55.703Z,19.93
2018-06-22T06:50:55.787Z,19.94
2018-06-22T06:51:55.732Z,19.96
2018-06-22T06:52:55.766Z,19.97
2018-06-22T06:53:55.785Z,19.98
2018-06-22T06:54:55.703Z,20
2018-06-22T06:55:55.724Z,20.01
2018-06-22T06:56:55.724Z,20
2018-06-22T06:57:55.692Z,20.02
2018-06-22T06:58:55.709Z,20.03
2018-06-22T06:59:55.771Z,20.04
2018-06-22T07:00:55.849Z,20.05
2018-06-22T07:01:55.782Z,20.06
2018-06-22T07:02:55.775Z,20.06
2018-06-22T07:03:55.874Z,20.07
2018-06-22T07:04:56.009Z,20.08
2018-06-22T07:05:56.016Z,20.09
2018-06-22T07:06:55.932Z,20.09
2018-06-22T07:07:55.707Z,20.09
2018-06-22T07:08:55.830Z,20.11
2018-06-22T07:09:55.679Z,20.12
2018-06-22T07:10:55.798Z,20.13
2018-06-22T07:11:55.926Z,20.14
2018-06-22T07:12:55.895Z,20.16
2018-06-22T07:13:55.654Z,20.18
2018-06-22T07:14:55.866Z,20.18
2018-06-22T07:15:55.989Z,20.19
2018-06-22T07:16:55.709Z,20.2
2018-06-22T07:17:55.698Z,20.18
2018-06-22T07:18:55.864Z,20.2
2018-06-22T07:19:55.948Z,20.22
2018-06-22T07:20:55.729Z,20.23
2018-06-22T07:21:55.787Z,20.24
2018-06-22T07:22:56.035Z,20.25
2018-06-22T07:23:55.722Z,20.26
2018-06-22T07:24:55.796Z,20.29
2018-06-22T07:25:55.736Z,20.3
2018-06-22T07:26:55.956Z,20.3
2018-06-22T07:27:55.647Z,20.31
2018-06-22T07:28:55.781Z,20.33
2018-06-22T07:29:55.690Z,20.33
2018-06-22T07:30:55.781Z,20.35
2018-06-22T07:31:55.708Z,20.36
2018-06-22T07:32:55.968Z,20.36
2018-06-22T07:33:56.104Z,20.35
2018-06-22T07:34:55.924Z,20.37
2018-06-22T07:35:56.006Z,20.37
2018-06-22T07:36:55.719Z,20.36
2018-06-22T07:37:55.995Z,20.37
2018-06-22T07:38:55.721Z,20.37
2018-06-22T07:39:55.754Z,20.37
2018-06-22T07:40:55.894Z,20.37
2018-06-22T07:41:55.820Z,20.37
2018-06-22T07:42:55.969Z,20.38
2018-06-22T07:43:56.097Z,20.39
2018-06-22T07:44:55.881Z,20.41
2018-06-22T07:46:05.757Z,20.41
2018-06-22T07:46:55.834Z,20.4
2018-06-22T07:47:55.697Z,20.41
2018-06-22T07:48:55.774Z,20.41
2018-06-22T07:49:56.447Z,20.41
2018-06-22T07:50:55.711Z,20.41
2018-06-22T07:51:55.869Z,20.41
2018-06-22T07:52:55.752Z,20.41
2018-06-22T07:53:55.892Z,20.41
2018-06-22T07:54:55.664Z,20.42
2018-06-22T07:55:55.735Z,20.42
2018-06-22T07:56:55.890Z,20.42
2018-06-22T07:57:56.195Z,20.42
2018-06-22T07:58:55.827Z,20.41
2018-06-22T07:59:55.809Z,20.4
2018-06-22T08:00:55.892Z,20.4
2018-06-22T08:01:55.818Z,20.41
2018-06-22T08:02:55.900Z,20.41
2018-06-22T08:04:05.756Z,20.41
2018-06-22T08:04:55.799Z,20.42
2018-06-22T08:05:55.690Z,20.41
2018-06-22T08:06:55.786Z,20.43
2018-06-22T08:07:55.879Z,20.41
2018-06-22T08:08:55.957Z,20.42
2018-06-22T08:09:55.912Z,20.42
2018-06-22T08:10:56.012Z,20.42
2018-06-22T08:11:55.799Z,20.42
2018-06-22T08:12:55.811Z,20.43
2018-06-22T08:13:55.725Z,20.44
2018-06-22T08:14:55.865Z,20.44
2018-06-22T08:15:55.855Z,20.44
2018-06-22T08:16:56.419Z,20.44
2018-06-22T08:17:55.920Z,20.45
2018-06-22T08:18:55.957Z,20.44
2018-06-22T08:19:56.419Z,20.46
2018-06-22T08:20:56.029Z,20.46
2018-06-22T08:22:15.803Z,20.46
2018-06-22T08:22:56.051Z,20.45
2018-06-22T08:23:55.780Z,20.46
2018-06-22T08:24:55.820Z,20.46
2018-06-22T08:25:55.788Z,20.46
2018-06-22T08:26:55.831Z,20.46
2018-06-22T08:27:55.835Z,20.47
2018-06-22T08:28:56.097Z,20.47
2018-06-22T08:29:56.114Z,20.47
2018-06-22T08:30:55.722Z,20.48
2018-06-22T08:31:55.789Z,20.49
2018-06-22T08:32:55.925Z,20.48
2018-06-22T08:33:55.739Z,20.49
2018-06-22T08:34:56.289Z,20.49
2018-06-22T08:35:55.924Z,20.48
2018-06-22T08:36:56.410Z,20.49
2018-06-22T08:37:55.815Z,20.49
2018-06-22T08:38:55.960Z,20.5
2018-06-22T08:39:55.781Z,20.51
2018-06-22T08:40:55.767Z,20.52
2018-06-22T08:41:56.442Z,20.52
2018-06-22T08:42:57.139Z,20.53
2018-06-22T08:43:55.846Z,20.53
2018-06-22T08:44:55.823Z,20.53
2018-06-22T08:45:55.711Z,20.54
2018-06-22T08:46:55.938Z,20.54
2018-06-22T08:47:56.063Z,20.53
2018-06-22T08:48:58.757Z,20.54
2018-06-22T08:49:55.917Z,20.56
2018-06-22T08:50:55.622Z,20.54
2018-06-22T08:51:55.671Z,20.55
2018-06-22T08:52:55.875Z,20.56
2018-06-22T08:53:55.785Z,20.57
2018-06-22T08:54:56.016Z,20.55
2018-06-22T08:55:55.859Z,20.55
2018-06-22T08:56:55.925Z,20.56
2018-06-22T08:57:55.939Z,20.57
2018-06-22T08:58:55.754Z,20.58
2018-06-22T08:59:55.716Z,20.58
2018-06-22T09:00:55.903Z,20.59
2018-06-22T09:01:55.736Z,20.59
2018-06-22T09:02:55.798Z,20.6
2018-06-22T09:03:55.727Z,20.61
2018-06-22T09:04:55.675Z,20.61
2018-06-22T09:05:55.920Z,20.62
2018-06-22T09:06:55.864Z,20.62
2018-06-22T09:07:55.889Z,20.63
2018-06-22T09:08:55.700Z,20.64
2018-06-22T09:09:55.672Z,20.65
2018-06-22T09:10:55.817Z,20.64
2018-06-22T09:11:55.912Z,20.64
2018-06-22T09:12:55.872Z,20.65
2018-06-22T09:13:55.734Z,20.64
2018-06-22T09:14:55.912Z,20.64
2018-06-22T09:15:55.781Z,20.65
2018-06-22T09:16:55.715Z,20.64
2018-06-22T09:17:55.676Z,20.63
2018-06-22T09:18:55.978Z,20.63
2018-06-22T09:19:55.745Z,20.65
2018-06-22T09:20:55.779Z,20.64
2018-06-22T09:21:55.728Z,20.65
2018-06-22T09:22:56.025Z,20.65
2018-06-22T09:23:55.870Z,20.65
2018-06-22T09:24:55.939Z,20.64
2018-06-22T09:25:55.855Z,20.65
2018-06-22T09:26:55.655Z,20.66
2018-06-22T09:27:55.722Z,20.66
2018-06-22T09:28:55.934Z,20.7
2018-06-22T09:29:55.869Z,20.69
2018-06-22T09:30:55.843Z,20.69
2018-06-22T09:31:55.763Z,20.68
2018-06-22T09:32:55.883Z,20.69
2018-06-22T09:33:55.978Z,20.69
2018-06-22T09:34:55.828Z,20.7
2018-06-22T09:35:55.711Z,20.7
2018-06-22T09:36:56.100Z,20.7
2018-06-22T09:37:55.843Z,20.68
2018-06-22T09:38:55.891Z,20.68
2018-06-22T09:39:55.745Z,20.68
2018-06-22T09:40:55.995Z,20.67
2018-06-22T09:41:55.804Z,20.67
2018-06-22T09:42:56.530Z,20.67
2018-06-22T09:43:55.880Z,20.66
2018-06-22T09:44:55.927Z,20.66
2018-06-22T09:45:55.941Z,20.66
2018-06-22T09:46:55.960Z,20.66
2018-06-22T09:47:56.120Z,20.66
2018-06-22T09:48:55.707Z,20.65
2018-06-22T09:49:55.729Z,20.66
2018-06-22T09:50:55.849Z,20.65
2018-06-22T09:51:55.884Z,20.65
2018-06-22T09:52:56.008Z,20.65
2018-06-22T09:53:55.627Z,20.65
2018-06-22T09:54:55.660Z,20.65
2018-06-22T09:55:55.833Z,20.65
2018-06-22T09:56:55.795Z,20.65
2018-06-22T09:57:55.846Z,20.65
2018-06-22T09:58:55.703Z,20.65
2018-06-22T09:59:55.671Z,20.65
2018-06-22T10:00:55.695Z,20.65
2018-06-22T10:01:55.985Z,20.65
2018-06-22T10:02:55.666Z,20.65
2018-06-22T10:03:55.917Z,20.65
2018-06-22T10:04:56.032Z,20.65
2018-06-22T10:05:56.737Z,20.64
2018-06-22T10:06:55.804Z,20.64
2018-06-22T10:07:55.734Z,20.64
2018-06-22T10:08:55.713Z,20.64
2018-06-22T10:09:55.842Z,20.64
2018-06-22T10:10:55.882Z,20.64
2018-06-22T10:11:55.610Z,20.64
2018-06-22T10:12:55.648Z,20.64
2018-06-22T10:13:56.279Z,20.64
2018-06-22T10:14:55.788Z,20.64
2018-06-22T10:15:55.874Z,20.64
2018-06-22T10:16:55.692Z,20.63
2018-06-22T10:17:55.831Z,20.64
2018-06-22T10:18:55.665Z,20.64
2018-06-22T10:19:55.786Z,20.64
2018-06-22T10:20:55.702Z,20.63
2018-06-22T10:21:55.745Z,20.63
2018-06-22T10:22:55.689Z,20.63
2018-06-22T10:23:55.720Z,20.63
2018-06-22T10:24:55.747Z,20.63
2018-06-22T10:25:55.697Z,20.63
2018-06-22T10:26:56.068Z,20.64
2018-06-22T10:27:55.832Z,20.63
2018-06-22T10:28:55.938Z,20.63
2018-06-22T10:29:55.706Z,20.63
2018-06-22T10:30:55.978Z,20.63
2018-06-22T10:31:55.747Z,20.63
2018-06-22T10:32:55.776Z,20.63
2018-06-22T10:33:56.637Z,20.63
2018-06-22T10:34:56.328Z,20.63
2018-06-22T10:35:56.048Z,20.62
2018-06-22T10:36:55.991Z,20.63
2018-06-22T10:37:55.780Z,20.63
2018-06-22T10:38:55.850Z,20.63
2018-06-22T10:39:55.999Z,20.62
2018-06-22T10:40:55.863Z,20.63
2018-06-22T10:41:55.865Z,20.63
2018-06-22T10:42:55.863Z,20.63
2018-06-22T10:43:55.724Z,20.63
2018-06-22T10:44:55.849Z,20.62
2018-06-22T10:45:56.247Z,20.64
2018-06-22T10:46:55.882Z,20.63
2018-06-22T10:47:55.759Z,20.63
2018-06-22T10:48:55.914Z,20.63
2018-06-22T10:49:55.939Z,20.63
2018-06-22T10:50:56.044Z,20.63
2018-06-22T10:51:55.919Z,20.63
2018-06-22T10:52:56.088Z,20.63
2018-06-22T10:53:55.868Z,20.63
2018-06-22T10:54:55.757Z,20.62
2018-06-22T10:55:55.687Z,20.63
2018-06-22T10:56:55.835Z,20.63
2018-06-22T10:57:55.673Z,20.63
2018-06-22T10:58:55.953Z,20.63
2018-06-22T10:59:56.087Z,20.63
2018-06-22T11:00:55.748Z,20.63
2018-06-22T11:01:55.970Z,20.63
2018-06-22T11:02:55.926Z,20.63
2018-06-22T11:03:56.024Z,20.63
2018-06-22T11:04:56.123Z,20.63
2018-06-22T11:05:55.733Z,20.63
2018-06-22T11:06:55.903Z,20.63
2018-06-22T11:07:55.794Z,20.64
2018-06-22T11:08:55.717Z,20.63
2018-06-22T11:09:55.816Z,20.64
2018-06-22T11:10:55.830Z,20.63
2018-06-22T11:11:55.744Z,20.63
2018-06-22T11:12:55.797Z,20.63
2018-06-22T11:13:56.076Z,20.63
2018-06-22T11:14:55.793Z,20.63
2018-06-22T11:15:55.841Z,20.63
2018-06-22T11:16:56.090Z,20.63
2018-06-22T11:17:55.674Z,20.63
2018-06-22T11:18:55.875Z,20.64
2018-06-22T11:19:55.735Z,20.63
2018-06-22T11:20:55.842Z,20.63
2018-06-22T11:21:55.950Z,20.63
2018-06-22T11:22:55.843Z,20.63
2018-06-22T11:24:05.685Z,20.63
2018-06-22T11:24:56.746Z,20.63
2018-06-22T11:25:55.909Z,20.64
2018-06-22T11:26:55.714Z,20.63
2018-06-22T11:27:55.689Z,20.63
2018-06-22T11:28:55.851Z,20.63
2018-06-22T11:29:55.761Z,20.63
2018-06-22T11:30:56.924Z,20.64
2018-06-22T11:31:55.926Z,20.63
2018-06-22T11:32:55.768Z,20.63
2018-06-22T11:33:55.809Z,20.64
2018-06-22T11:34:55.718Z,20.63
2018-06-22T11:35:55.693Z,20.63
2018-06-22T11:36:55.874Z,20.63
2018-06-22T11:37:55.922Z,20.64
2018-06-22T11:38:55.719Z,20.63
2018-06-22T11:39:55.788Z,20.63
2018-06-22T11:40:55.913Z,20.64
2018-06-22T11:41:55.613Z,20.63
2018-06-22T11:42:55.720Z,20.63
2018-06-22T11:43:55.827Z,20.63
2018-06-22T11:44:55.748Z,20.64
2018-06-22T11:45:55.792Z,20.64
2018-06-22T11:46:55.995Z,20.64
2018-06-22T11:47:55.914Z,20.63
2018-06-22T11:48:55.739Z,20.63
2018-06-22T11:49:55.975Z,20.64
2018-06-22T11:50:55.625Z,20.63
2018-06-22T11:51:55.649Z,20.63
2018-06-22T11:52:55.822Z,20.64
2018-06-22T11:53:55.827Z,20.64
2018-06-22T11:54:55.756Z,20.64
2018-06-22T11:55:55.880Z,20.64
2018-06-22T11:56:55.961Z,20.64
2018-06-22T11:57:55.796Z,20.64
2018-06-22T11:58:55.734Z,20.64
2018-06-22T12:00:05.745Z,20.64
2018-06-22T12:00:55.951Z,20.64
2018-06-22T12:01:55.945Z,20.64
2018-06-22T12:02:55.822Z,20.64
2018-06-22T12:03:55.834Z,20.64
2018-06-22T12:04:55.810Z,20.64
2018-06-22T12:05:55.782Z,20.64
2018-06-22T12:06:55.655Z,20.64
2018-06-22T12:07:55.770Z,20.64
2018-06-22T12:08:55.727Z,20.63
2018-06-22T12:09:55.909Z,20.64
2018-06-22T12:10:55.851Z,20.64
2018-06-22T12:11:55.815Z,20.64
2018-06-22T12:12:56.378Z,20.64
2018-06-22T12:13:55.801Z,20.65
2018-06-22T12:14:55.750Z,20.64
2018-06-22T12:15:55.946Z,20.64
2018-06-22T12:16:55.783Z,20.64
2018-06-22T12:17:55.704Z,20.64
2018-06-22T12:18:55.633Z,20.65
2018-06-22T12:19:55.668Z,20.65
2018-06-22T12:20:55.673Z,20.64
2018-06-22T12:21:55.809Z,20.65
2018-06-22T12:22:55.952Z,20.65
2018-06-22T12:23:55.730Z,20.65
2018-06-22T12:24:55.686Z,20.65
2018-06-22T12:25:55.689Z,20.65
2018-06-22T12:26:55.853Z,20.65
2018-06-22T12:27:55.823Z,20.64
2018-06-22T12:28:55.611Z,20.64
2018-06-22T12:29:55.858Z,20.65
2018-06-22T12:30:55.796Z,20.65
2018-06-22T12:31:55.880Z,20.65
2018-06-22T12:32:56.148Z,20.65
2018-06-22T12:33:55.813Z,20.65
2018-06-22T12:34:55.717Z,20.65
2018-06-22T12:35:55.878Z,20.65
2018-06-22T12:36:55.661Z,20.65
2018-06-22T12:37:56.059Z,20.65
2018-06-22T12:38:56.004Z,20.65
2018-06-22T12:39:56.246Z,20.65
2018-06-22T12:40:56.164Z,20.65
2018-06-22T12:41:56.051Z,20.65
2018-06-22T12:42:56.188Z,20.65
2018-06-22T12:43:55.834Z,20.66
2018-06-22T12:44:56.038Z,20.65
2018-06-22T12:45:55.722Z,20.66
2018-06-22T12:46:55.774Z,20.66
2018-06-22T12:47:55.810Z,20.65
2018-06-22T12:48:56.899Z,20.66
2018-06-22T12:49:55.793Z,20.66
2018-06-22T12:50:56.001Z,20.66
2018-06-22T12:51:55.881Z,20.65
2018-06-22T12:52:55.844Z,20.66
2018-06-22T12:53:55.751Z,20.66
2018-06-22T12:54:55.707Z,20.65